sensor_id;sensor_type;location;lat;lon;timestamp;P1;durP1;ratioP1;P2;durP2;ratioP2
25163;SDS011;13440;50.860;13.662;2022-11-20T00:01:59;12.60;;;6.88;;
25163;SDS011;13440;50.860;13.662;2022-11-20T00:04:24;13.45;;;7.35;;
25163;SDS011;13440;50.860;13.662;2022-11-20T00:06:49;12.43;;;7.00;;
25163;SDS011;13440;50.860;13.662;2022-11-20T00:09:15;11.82;;;6.97;;
25163;SDS011;13440;50.860;13.662;2022-11-20T00:11:40;11.75;;;6.38;;
25163;SDS011;13440;50.860;13.662;2022-11-20T00:14:05;13.65;;;6.78;;
25163;SDS011;13440;50.860;13.662;2022-11-20T00:16:31;13.20;;;6.30;;
25163;SDS011;13440;50.860;13.662;2022-11-20T00:18:56;14.07;;;6.55;;
25163;SDS011;13440;50.860;13.662;2022-11-20T00:21:23;15.05;;;7.45;;
25163;SDS011;13440;50.860;13.662;2022-11-20T00:23:49;10.77;;;6.28;;
25163;SDS011;13440;50.860;13.662;2022-11-20T00:26:15;11.55;;;6.32;;
25163;SDS011;13440;50.860;13.662;2022-11-20T00:28:41;10.98;;;6.07;;
25163;SDS011;13440;50.860;13.662;2022-11-20T00:31:08;13.20;;;6.15;;
25163;SDS011;13440;50.860;13.662;2022-11-20T00:33:34;11.20;;;6.38;;
25163;SDS011;13440;50.860;13.662;2022-11-20T00:36:00;9.73;;;5.15;;
25163;SDS011;13440;50.860;13.662;2022-11-20T00:38:26;10.05;;;5.43;;
25163;SDS011;13440;50.860;13.662;2022-11-20T00:40:56;8.98;;;5.72;;
25163;SDS011;13440;50.860;13.662;2022-11-20T00:43:21;11.32;;;5.55;;
25163;SDS011;13440;50.860;13.662;2022-11-20T00:45:46;10.00;;;5.20;;
25163;SDS011;13440;50.860;13.662;2022-11-20T00:48:11;9.73;;;5.38;;
25163;SDS011;13440;50.860;13.662;2022-11-20T00:50:37;9.63;;;5.47;;
25163;SDS011;13440;50.860;13.662;2022-11-20T00:53:02;10.00;;;5.22;;
25163;SDS011;13440;50.860;13.662;2022-11-20T00:55:27;9.32;;;5.18;;
25163;SDS011;13440;50.860;13.662;2022-11-20T00:57:52;9.65;;;5.38;;
25163;SDS011;13440;50.860;13.662;2022-11-20T01:00:18;8.82;;;4.78;;
25163;SDS011;13440;50.860;13.662;2022-11-20T01:02:43;11.30;;;4.63;;
25163;SDS011;13440;50.860;13.662;2022-11-20T01:05:08;9.75;;;5.07;;
25163;SDS011;13440;50.860;13.662;2022-11-20T01:07:34;9.07;;;4.95;;
25163;SDS011;13440;50.860;13.662;2022-11-20T01:09:59;9.45;;;4.93;;
25163;SDS011;13440;50.860;13.662;2022-11-20T01:12:24;9.77;;;5.03;;
25163;SDS011;13440;50.860;13.662;2022-11-20T01:14:49;7.35;;;4.22;;
25163;SDS011;13440;50.860;13.662;2022-11-20T01:17:14;7.55;;;3.95;;
25163;SDS011;13440;50.860;13.662;2022-11-20T01:19:40;8.23;;;4.13;;
25163;SDS011;13440;50.860;13.662;2022-11-20T01:22:05;7.93;;;4.07;;
25163;SDS011;13440;50.860;13.662;2022-11-20T01:24:30;6.05;;;3.30;;
25163;SDS011;13440;50.860;13.662;2022-11-20T01:26:55;7.32;;;3.72;;
25163;SDS011;13440;50.860;13.662;2022-11-20T01:29:22;6.32;;;3.70;;
25163;SDS011;13440;50.860;13.662;2022-11-20T01:31:47;6.03;;;3.35;;
25163;SDS011;13440;50.860;13.662;2022-11-20T01:34:13;4.75;;;3.03;;
25163;SDS011;13440;50.860;13.662;2022-11-20T01:36:40;4.70;;;2.85;;
25163;SDS011;13440;50.860;13.662;2022-11-20T01:39:06;5.35;;;3.25;;
25163;SDS011;13440;50.860;13.662;2022-11-20T01:41:32;5.60;;;3.20;;
25163;SDS011;13440;50.860;13.662;2022-11-20T01:44:17;5.03;;;3.08;;
25163;SDS011;13440;50.860;13.662;2022-11-20T01:46:52;5.65;;;3.58;;
25163;SDS011;13440;50.860;13.662;2022-11-20T01:49:24;4.32;;;3.03;;
25163;SDS011;13440;50.860;13.662;2022-11-20T01:51:56;5.80;;;3.35;;
25163;SDS011;13440;50.860;13.662;2022-11-20T01:54:24;5.90;;;3.33;;
25163;SDS011;13440;50.860;13.662;2022-11-20T01:56:51;5.40;;;3.53;;
25163;SDS011;13440;50.860;13.662;2022-11-20T01:59:17;4.28;;;2.97;;
25163;SDS011;13440;50.860;13.662;2022-11-20T02:01:43;6.35;;;3.38;;
25163;SDS011;13440;50.860;13.662;2022-11-20T02:04:09;3.90;;;2.60;;
25163;SDS011;13440;50.860;13.662;2022-11-20T02:06:36;5.05;;;2.88;;
25163;SDS011;13440;50.860;13.662;2022-11-20T02:09:04;5.03;;;2.58;;
25163;SDS011;13440;50.860;13.662;2022-11-20T02:11:30;6.10;;;3.10;;
25163;SDS011;13440;50.860;13.662;2022-11-20T02:13:55;3.72;;;2.53;;
25163;SDS011;13440;50.860;13.662;2022-11-20T02:16:22;4.25;;;2.67;;
25163;SDS011;13440;50.860;13.662;2022-11-20T02:18:48;5.15;;;3.13;;
25163;SDS011;13440;50.860;13.662;2022-11-20T02:24:04;4.38;;;2.67;;
25163;SDS011;13440;50.860;13.662;2022-11-20T02:26:31;4.93;;;2.80;;
25163;SDS011;13440;50.860;13.662;2022-11-20T02:28:57;4.63;;;3.08;;
25163;SDS011;13440;50.860;13.662;2022-11-20T02:31:23;4.30;;;2.88;;
25163;SDS011;13440;50.860;13.662;2022-11-20T02:33:53;3.60;;;2.47;;
25163;SDS011;13440;50.860;13.662;2022-11-20T02:36:19;4.93;;;3.30;;
25163;SDS011;13440;50.860;13.662;2022-11-20T02:38:44;4.82;;;2.88;;
25163;SDS011;13440;50.860;13.662;2022-11-20T02:41:09;3.05;;;2.47;;
25163;SDS011;13440;50.860;13.662;2022-11-20T02:43:35;5.65;;;2.80;;
25163;SDS011;13440;50.860;13.662;2022-11-20T02:46:00;5.00;;;3.35;;
25163;SDS011;13440;50.860;13.662;2022-11-20T02:48:25;8.57;;;3.00;;
25163;SDS011;13440;50.860;13.662;2022-11-20T02:50:50;4.88;;;2.97;;
25163;SDS011;13440;50.860;13.662;2022-11-20T02:53:16;4.72;;;2.65;;
25163;SDS011;13440;50.860;13.662;2022-11-20T02:55:41;4.57;;;2.65;;
25163;SDS011;13440;50.860;13.662;2022-11-20T02:58:06;5.57;;;2.50;;
25163;SDS011;13440;50.860;13.662;2022-11-20T03:00:32;4.97;;;2.78;;
25163;SDS011;13440;50.860;13.662;2022-11-20T03:02:57;6.80;;;3.53;;
25163;SDS011;13440;50.860;13.662;2022-11-20T03:05:22;5.90;;;3.25;;
25163;SDS011;13440;50.860;13.662;2022-11-20T03:07:47;6.20;;;3.00;;
25163;SDS011;13440;50.860;13.662;2022-11-20T03:10:13;6.43;;;3.20;;
25163;SDS011;13440;50.860;13.662;2022-11-20T03:12:38;5.78;;;3.35;;
25163;SDS011;13440;50.860;13.662;2022-11-20T03:15:03;7.30;;;3.65;;
25163;SDS011;13440;50.860;13.662;2022-11-20T03:17:29;4.65;;;3.15;;
25163;SDS011;13440;50.860;13.662;2022-11-20T03:19:55;6.15;;;3.05;;
25163;SDS011;13440;50.860;13.662;2022-11-20T03:22:21;5.55;;;3.00;;
25163;SDS011;13440;50.860;13.662;2022-11-20T03:24:46;4.80;;;3.17;;
25163;SDS011;13440;50.860;13.662;2022-11-20T03:27:12;7.13;;;3.30;;
25163;SDS011;13440;50.860;13.662;2022-11-20T03:29:37;6.18;;;3.30;;
25163;SDS011;13440;50.860;13.662;2022-11-20T03:32:02;5.70;;;3.70;;
25163;SDS011;13440;50.860;13.662;2022-11-20T03:34:27;5.72;;;3.10;;
25163;SDS011;13440;50.860;13.662;2022-11-20T03:36:53;5.05;;;3.00;;
25163;SDS011;13440;50.860;13.662;2022-11-20T03:39:18;6.00;;;3.28;;
25163;SDS011;13440;50.860;13.662;2022-11-20T03:41:43;5.75;;;3.67;;
25163;SDS011;13440;50.860;13.662;2022-11-20T03:44:10;5.55;;;3.20;;
25163;SDS011;13440;50.860;13.662;2022-11-20T03:46:36;6.38;;;3.35;;
25163;SDS011;13440;50.860;13.662;2022-11-20T03:49:02;7.20;;;3.72;;
25163;SDS011;13440;50.860;13.662;2022-11-20T03:51:31;5.88;;;3.40;;
25163;SDS011;13440;50.860;13.662;2022-11-20T03:53:58;5.68;;;3.58;;
25163;SDS011;13440;50.860;13.662;2022-11-20T03:56:24;6.63;;;3.42;;
25163;SDS011;13440;50.860;13.662;2022-11-20T03:58:50;6.20;;;3.20;;
25163;SDS011;13440;50.860;13.662;2022-11-20T04:01:17;7.63;;;3.78;;
25163;SDS011;13440;50.860;13.662;2022-11-20T04:03:43;6.03;;;3.90;;
25163;SDS011;13440;50.860;13.662;2022-11-20T04:06:09;6.57;;;3.65;;
25163;SDS011;13440;50.860;13.662;2022-11-20T04:08:35;6.78;;;4.20;;
25163;SDS011;13440;50.860;13.662;2022-11-20T04:11:13;7.88;;;4.18;;
25163;SDS011;13440;50.860;13.662;2022-11-20T04:13:40;5.82;;;3.80;;
25163;SDS011;13440;50.860;13.662;2022-11-20T04:16:05;6.95;;;3.40;;
25163;SDS011;13440;50.860;13.662;2022-11-20T04:18:31;10.57;;;3.92;;
25163;SDS011;13440;50.860;13.662;2022-11-20T04:20:57;6.45;;;3.80;;
25163;SDS011;13440;50.860;13.662;2022-11-20T04:23:22;7.43;;;3.67;;
25163;SDS011;13440;50.860;13.662;2022-11-20T04:25:48;6.25;;;4.20;;
25163;SDS011;13440;50.860;13.662;2022-11-20T04:28:13;7.80;;;4.45;;
25163;SDS011;13440;50.860;13.662;2022-11-20T04:30:38;7.25;;;4.15;;
25163;SDS011;13440;50.860;13.662;2022-11-20T04:33:03;7.10;;;4.05;;
25163;SDS011;13440;50.860;13.662;2022-11-20T04:35:29;8.75;;;4.82;;
25163;SDS011;13440;50.860;13.662;2022-11-20T04:37:54;8.85;;;4.88;;
25163;SDS011;13440;50.860;13.662;2022-11-20T04:40:19;12.25;;;5.88;;
25163;SDS011;13440;50.860;13.662;2022-11-20T04:42:45;10.68;;;5.53;;
25163;SDS011;13440;50.860;13.662;2022-11-20T04:45:10;10.48;;;5.90;;
25163;SDS011;13440;50.860;13.662;2022-11-20T04:47:35;9.85;;;5.30;;
25163;SDS011;13440;50.860;13.662;2022-11-20T04:50:00;10.02;;;5.20;;
25163;SDS011;13440;50.860;13.662;2022-11-20T04:52:26;8.57;;;4.85;;
25163;SDS011;13440;50.860;13.662;2022-11-20T04:54:51;10.10;;;5.35;;
25163;SDS011;13440;50.860;13.662;2022-11-20T04:57:17;11.68;;;5.82;;
25163;SDS011;13440;50.860;13.662;2022-11-20T04:59:43;12.52;;;6.05;;
25163;SDS011;13440;50.860;13.662;2022-11-20T05:02:08;13.10;;;6.38;;
25163;SDS011;13440;50.860;13.662;2022-11-20T05:04:33;10.52;;;5.63;;
25163;SDS011;13440;50.860;13.662;2022-11-20T05:06:59;11.05;;;5.57;;
25163;SDS011;13440;50.860;13.662;2022-11-20T05:09:24;12.07;;;6.38;;
25163;SDS011;13440;50.860;13.662;2022-11-20T05:11:49;10.80;;;6.03;;
25163;SDS011;13440;50.860;13.662;2022-11-20T05:14:14;12.07;;;6.25;;
25163;SDS011;13440;50.860;13.662;2022-11-20T05:16:40;11.88;;;6.00;;
25163;SDS011;13440;50.860;13.662;2022-11-20T05:19:05;11.68;;;5.85;;
25163;SDS011;13440;50.860;13.662;2022-11-20T05:21:31;10.43;;;5.97;;
25163;SDS011;13440;50.860;13.662;2022-11-20T05:23:57;10.65;;;5.97;;
25163;SDS011;13440;50.860;13.662;2022-11-20T05:26:22;10.60;;;5.82;;
25163;SDS011;13440;50.860;13.662;2022-11-20T05:28:48;12.75;;;6.90;;
25163;SDS011;13440;50.860;13.662;2022-11-20T05:31:14;14.63;;;6.72;;
25163;SDS011;13440;50.860;13.662;2022-11-20T05:33:41;18.25;;;8.82;;
25163;SDS011;13440;50.860;13.662;2022-11-20T05:36:15;17.42;;;8.45;;
25163;SDS011;13440;50.860;13.662;2022-11-20T05:38:41;14.43;;;8.05;;
25163;SDS011;13440;50.860;13.662;2022-11-20T05:41:10;16.40;;;7.88;;
25163;SDS011;13440;50.860;13.662;2022-11-20T05:43:36;15.40;;;7.97;;
25163;SDS011;13440;50.860;13.662;2022-11-20T05:46:02;18.42;;;8.80;;
25163;SDS011;13440;50.860;13.662;2022-11-20T05:48:40;16.23;;;8.05;;
25163;SDS011;13440;50.860;13.662;2022-11-20T05:51:29;15.57;;;7.80;;
25163;SDS011;13440;50.860;13.662;2022-11-20T05:53:57;13.68;;;7.57;;
25163;SDS011;13440;50.860;13.662;2022-11-20T05:56:23;18.05;;;8.85;;
25163;SDS011;13440;50.860;13.662;2022-11-20T05:58:48;15.25;;;7.38;;
25163;SDS011;13440;50.860;13.662;2022-11-20T06:01:20;15.43;;;8.57;;
25163;SDS011;13440;50.860;13.662;2022-11-20T06:03:48;19.52;;;8.82;;
25163;SDS011;13440;50.860;13.662;2022-11-20T06:06:20;17.38;;;8.93;;
25163;SDS011;13440;50.860;13.662;2022-11-20T06:08:48;14.93;;;7.70;;
25163;SDS011;13440;50.860;13.662;2022-11-20T06:11:14;16.20;;;8.45;;
25163;SDS011;13440;50.860;13.662;2022-11-20T06:13:43;15.65;;;8.05;;
25163;SDS011;13440;50.860;13.662;2022-11-20T06:16:09;16.30;;;7.88;;
25163;SDS011;13440;50.860;13.662;2022-11-20T06:18:51;14.35;;;7.82;;
25163;SDS011;13440;50.860;13.662;2022-11-20T06:39:55;21.70;;;10.55;;
25163;SDS011;13440;50.860;13.662;2022-11-20T06:43:35;19.60;;;9.80;;
25163;SDS011;13440;50.860;13.662;2022-11-20T07:04:43;16.52;;;8.30;;
25163;SDS011;13440;50.860;13.662;2022-11-20T07:07:09;16.38;;;8.48;;
25163;SDS011;13440;50.860;13.662;2022-11-20T07:09:34;15.70;;;8.77;;
25163;SDS011;13440;50.860;13.662;2022-11-20T07:11:59;16.23;;;8.32;;
25163;SDS011;13440;50.860;13.662;2022-11-20T07:14:28;19.92;;;9.93;;
25163;SDS011;13440;50.860;13.662;2022-11-20T07:16:53;19.58;;;10.43;;
25163;SDS011;13440;50.860;13.662;2022-11-20T07:19:25;22.15;;;10.15;;
25163;SDS011;13440;50.860;13.662;2022-11-20T07:22:12;26.27;;;11.77;;
25163;SDS011;13440;50.860;13.662;2022-11-20T07:24:38;22.90;;;11.02;;
25163;SDS011;13440;50.860;13.662;2022-11-20T07:27:03;20.10;;;10.25;;
25163;SDS011;13440;50.860;13.662;2022-11-20T07:29:29;23.30;;;11.38;;
25163;SDS011;13440;50.860;13.662;2022-11-20T07:31:54;20.67;;;10.68;;
25163;SDS011;13440;50.860;13.662;2022-11-20T07:34:21;15.90;;;9.10;;
25163;SDS011;13440;50.860;13.662;2022-11-20T07:36:46;16.63;;;9.77;;
25163;SDS011;13440;50.860;13.662;2022-11-20T07:39:11;16.35;;;9.80;;
25163;SDS011;13440;50.860;13.662;2022-11-20T07:41:37;13.75;;;8.82;;
25163;SDS011;13440;50.860;13.662;2022-11-20T07:44:02;14.93;;;9.68;;
25163;SDS011;13440;50.860;13.662;2022-11-20T07:46:27;13.85;;;9.00;;
25163;SDS011;13440;50.860;13.662;2022-11-20T07:48:52;11.88;;;8.45;;
25163;SDS011;13440;50.860;13.662;2022-11-20T07:51:18;12.75;;;8.30;;
25163;SDS011;13440;50.860;13.662;2022-11-20T07:53:43;12.25;;;8.57;;
25163;SDS011;13440;50.860;13.662;2022-11-20T07:56:08;11.45;;;7.70;;
25163;SDS011;13440;50.860;13.662;2022-11-20T07:58:34;11.52;;;8.27;;
25163;SDS011;13440;50.860;13.662;2022-11-20T08:01:03;11.85;;;7.88;;
25163;SDS011;13440;50.860;13.662;2022-11-20T08:03:29;49.50;;;26.80;;
25163;SDS011;13440;50.860;13.662;2022-11-20T08:05:54;10.27;;;7.38;;
25163;SDS011;13440;50.860;13.662;2022-11-20T08:08:23;10.35;;;7.55;;
25163;SDS011;13440;50.860;13.662;2022-11-20T08:10:48;11.63;;;8.27;;
25163;SDS011;13440;50.860;13.662;2022-11-20T08:13:13;40.63;;;25.98;;
25163;SDS011;13440;50.860;13.662;2022-11-20T08:15:57;10.57;;;7.07;;
25163;SDS011;13440;50.860;13.662;2022-11-20T08:18:22;8.82;;;6.60;;
25163;SDS011;13440;50.860;13.662;2022-11-20T08:20:48;8.63;;;6.80;;
25163;SDS011;13440;50.860;13.662;2022-11-20T08:23:13;8.32;;;6.20;;
25163;SDS011;13440;50.860;13.662;2022-11-20T08:25:38;8.70;;;6.60;;
25163;SDS011;13440;50.860;13.662;2022-11-20T08:28:05;8.75;;;7.10;;
25163;SDS011;13440;50.860;13.662;2022-11-20T08:30:30;6.28;;;5.47;;
25163;SDS011;13440;50.860;13.662;2022-11-20T08:33:00;7.10;;;6.00;;
25163;SDS011;13440;50.860;13.662;2022-11-20T08:35:26;6.90;;;5.20;;
25163;SDS011;13440;50.860;13.662;2022-11-20T08:37:51;7.07;;;5.65;;
25163;SDS011;13440;50.860;13.662;2022-11-20T08:40:16;7.00;;;5.40;;
25163;SDS011;13440;50.860;13.662;2022-11-20T08:42:48;6.57;;;5.25;;
25163;SDS011;13440;50.860;13.662;2022-11-20T08:45:13;8.20;;;5.38;;
25163;SDS011;13440;50.860;13.662;2022-11-20T08:47:39;6.90;;;5.68;;
25163;SDS011;13440;50.860;13.662;2022-11-20T08:50:04;7.72;;;5.90;;
25163;SDS011;13440;50.860;13.662;2022-11-20T08:52:29;7.57;;;6.20;;
25163;SDS011;13440;50.860;13.662;2022-11-20T08:54:54;7.15;;;5.68;;
25163;SDS011;13440;50.860;13.662;2022-11-20T08:57:20;6.40;;;5.10;;
25163;SDS011;13440;50.860;13.662;2022-11-20T08:59:45;11.90;;;8.73;;
25163;SDS011;13440;50.860;13.662;2022-11-20T09:02:10;7.22;;;5.50;;
25163;SDS011;13440;50.860;13.662;2022-11-20T09:04:37;6.65;;;5.10;;
25163;SDS011;13440;50.860;13.662;2022-11-20T09:07:02;5.00;;;4.03;;
25163;SDS011;13440;50.860;13.662;2022-11-20T09:09:27;5.28;;;4.55;;
25163;SDS011;13440;50.860;13.662;2022-11-20T09:11:53;5.57;;;4.45;;
25163;SDS011;13440;50.860;13.662;2022-11-20T09:14:18;7.40;;;5.22;;
25163;SDS011;13440;50.860;13.662;2022-11-20T09:16:44;6.57;;;5.10;;
25163;SDS011;13440;50.860;13.662;2022-11-20T09:19:09;15.02;;;10.27;;
25163;SDS011;13440;50.860;13.662;2022-11-20T09:21:35;41.42;;;20.92;;
25163;SDS011;13440;50.860;13.662;2022-11-20T09:24:00;126.35;;;60.95;;
25163;SDS011;13440;50.860;13.662;2022-11-20T09:26:25;67.95;;;34.17;;
25163;SDS011;13440;50.860;13.662;2022-11-20T09:28:51;14.95;;;10.00;;
25163;SDS011;13440;50.860;13.662;2022-11-20T09:31:22;21.35;;;16.30;;
25163;SDS011;13440;50.860;13.662;2022-11-20T09:33:48;5.70;;;5.10;;
25163;SDS011;13440;50.860;13.662;2022-11-20T09:36:13;5.30;;;4.50;;
25163;SDS011;13440;50.860;13.662;2022-11-20T09:38:39;6.55;;;5.43;;
25163;SDS011;13440;50.860;13.662;2022-11-20T09:41:05;9.70;;;8.55;;
25163;SDS011;13440;50.860;13.662;2022-11-20T09:43:40;6.70;;;5.47;;
25163;SDS011;13440;50.860;13.662;2022-11-20T09:53:41;4.20;;;3.50;;
25163;SDS011;13440;50.860;13.662;2022-11-20T09:56:11;3.95;;;3.17;;
25163;SDS011;13440;50.860;13.662;2022-11-20T09:58:40;4.13;;;2.85;;
25163;SDS011;13440;50.860;13.662;2022-11-20T10:01:12;4.63;;;3.50;;
25163;SDS011;13440;50.860;13.662;2022-11-20T10:03:45;3.85;;;2.97;;
25163;SDS011;13440;50.860;13.662;2022-11-20T10:06:15;3.97;;;3.08;;
25163;SDS011;13440;50.860;13.662;2022-11-20T10:08:43;5.20;;;3.90;;
25163;SDS011;13440;50.860;13.662;2022-11-20T10:11:26;5.15;;;3.85;;
25163;SDS011;13440;50.860;13.662;2022-11-20T10:14:00;6.28;;;4.22;;
25163;SDS011;13440;50.860;13.662;2022-11-20T10:29:43;5.28;;;3.85;;
25163;SDS011;13440;50.860;13.662;2022-11-20T10:37:27;5.13;;;3.45;;
25163;SDS011;13440;50.860;13.662;2022-11-20T10:39:56;5.13;;;3.25;;
25163;SDS011;13440;50.860;13.662;2022-11-20T10:42:26;3.17;;;2.70;;
25163;SDS011;13440;50.860;13.662;2022-11-20T10:44:57;4.05;;;2.50;;
25163;SDS011;13440;50.860;13.662;2022-11-20T10:47:26;2.97;;;2.50;;
25163;SDS011;13440;50.860;13.662;2022-11-20T10:49:53;50.88;;;28.90;;
25163;SDS011;13440;50.860;13.662;2022-11-20T10:57:25;4.40;;;4.00;;
25163;SDS011;13440;50.860;13.662;2022-11-20T10:59:59;4.32;;;3.53;;
25163;SDS011;13440;50.860;13.662;2022-11-20T11:02:34;7.68;;;6.25;;
25163;SDS011;13440;50.860;13.662;2022-11-20T11:04:59;3.60;;;3.15;;
25163;SDS011;13440;50.860;13.662;2022-11-20T11:07:32;4.47;;;3.65;;
25163;SDS011;13440;50.860;13.662;2022-11-20T11:09:59;4.40;;;3.42;;
25163;SDS011;13440;50.860;13.662;2022-11-20T11:12:25;5.10;;;3.80;;
25163;SDS011;13440;50.860;13.662;2022-11-20T11:14:51;4.97;;;4.00;;
25163;SDS011;13440;50.860;13.662;2022-11-20T11:17:33;6.32;;;4.47;;
25163;SDS011;13440;50.860;13.662;2022-11-20T11:20:20;5.85;;;4.43;;
25163;SDS011;13440;50.860;13.662;2022-11-20T11:25:20;6.78;;;5.35;;
25163;SDS011;13440;50.860;13.662;2022-11-20T11:27:46;9.10;;;6.30;;
25163;SDS011;13440;50.860;13.662;2022-11-20T11:30:13;6.93;;;5.38;;
25163;SDS011;13440;50.860;13.662;2022-11-20T11:32:39;6.85;;;5.25;;
25163;SDS011;13440;50.860;13.662;2022-11-20T11:35:05;8.15;;;6.28;;
25163;SDS011;13440;50.860;13.662;2022-11-20T11:37:34;7.78;;;6.25;;
25163;SDS011;13440;50.860;13.662;2022-11-20T11:40:01;8.80;;;6.07;;
25163;SDS011;13440;50.860;13.662;2022-11-20T11:42:26;9.50;;;6.35;;
25163;SDS011;13440;50.860;13.662;2022-11-20T11:44:53;10.10;;;6.60;;
25163;SDS011;13440;50.860;13.662;2022-11-20T11:47:31;14.82;;;10.35;;
25163;SDS011;13440;50.860;13.662;2022-11-20T11:50:01;8.88;;;6.80;;
25163;SDS011;13440;50.860;13.662;2022-11-20T11:52:26;10.82;;;7.10;;
25163;SDS011;13440;50.860;13.662;2022-11-20T11:54:53;9.05;;;6.47;;
25163;SDS011;13440;50.860;13.662;2022-11-20T12:05:21;10.88;;;6.85;;
25163;SDS011;13440;50.860;13.662;2022-11-20T12:08:02;9.80;;;7.38;;
25163;SDS011;13440;50.860;13.662;2022-11-20T12:10:37;11.13;;;7.60;;
25163;SDS011;13440;50.860;13.662;2022-11-20T12:13:15;9.55;;;6.55;;
25163;SDS011;13440;50.860;13.662;2022-11-20T12:15:44;11.02;;;7.28;;
25163;SDS011;13440;50.860;13.662;2022-11-20T12:18:13;13.10;;;7.85;;
25163;SDS011;13440;50.860;13.662;2022-11-20T12:20:41;12.82;;;8.48;;
25163;SDS011;13440;50.860;13.662;2022-11-20T12:23:18;10.68;;;7.88;;
25163;SDS011;13440;50.860;13.662;2022-11-20T12:25:47;13.38;;;8.43;;
25163;SDS011;13440;50.860;13.662;2022-11-20T12:28:26;13.45;;;8.85;;
25163;SDS011;13440;50.860;13.662;2022-11-20T12:36:06;14.80;;;9.55;;
25163;SDS011;13440;50.860;13.662;2022-11-20T12:43:26;14.50;;;9.50;;
25163;SDS011;13440;50.860;13.662;2022-11-20T12:46:20;15.68;;;10.00;;
25163;SDS011;13440;50.860;13.662;2022-11-20T12:48:51;13.98;;;9.25;;
25163;SDS011;13440;50.860;13.662;2022-11-20T12:51:24;16.20;;;10.02;;
25163;SDS011;13440;50.860;13.662;2022-11-20T12:57:14;17.52;;;10.38;;
25163;SDS011;13440;50.860;13.662;2022-11-20T13:07:15;18.48;;;11.10;;
25163;SDS011;13440;50.860;13.662;2022-11-20T13:09:45;20.75;;;10.93;;
25163;SDS011;13440;50.860;13.662;2022-11-20T13:14:46;21.17;;;12.30;;
25163;SDS011;13440;50.860;13.662;2022-11-20T13:22:23;21.17;;;12.10;;
25163;SDS011;13440;50.860;13.662;2022-11-20T13:24:50;22.08;;;12.15;;
25163;SDS011;13440;50.860;13.662;2022-11-20T13:29:42;25.67;;;13.15;;
25163;SDS011;13440;50.860;13.662;2022-11-20T13:32:18;23.45;;;13.50;;
25163;SDS011;13440;50.860;13.662;2022-11-20T13:34:51;24.63;;;13.25;;
25163;SDS011;13440;50.860;13.662;2022-11-20T13:37:28;27.25;;;14.00;;
25163;SDS011;13440;50.860;13.662;2022-11-20T13:40:04;27.00;;;14.70;;
25163;SDS011;13440;50.860;13.662;2022-11-20T13:42:29;28.80;;;15.35;;
25163;SDS011;13440;50.860;13.662;2022-11-20T13:44:55;28.85;;;15.57;;
25163;SDS011;13440;50.860;13.662;2022-11-20T13:47:24;26.75;;;15.05;;
25163;SDS011;13440;50.860;13.662;2022-11-20T13:49:50;26.73;;;14.20;;
25163;SDS011;13440;50.860;13.662;2022-11-20T13:54:52;28.17;;;14.82;;
25163;SDS011;13440;50.860;13.662;2022-11-20T13:59:59;30.17;;;16.02;;
25163;SDS011;13440;50.860;13.662;2022-11-20T14:02:35;33.63;;;16.13;;
25163;SDS011;13440;50.860;13.662;2022-11-20T14:05:01;31.25;;;15.60;;
25163;SDS011;13440;50.860;13.662;2022-11-20T14:07:35;32.03;;;16.35;;
25163;SDS011;13440;50.860;13.662;2022-11-20T14:10:01;58.20;;;28.90;;
25163;SDS011;13440;50.860;13.662;2022-11-20T14:12:28;44.38;;;20.13;;
25163;SDS011;13440;50.860;13.662;2022-11-20T14:14:53;35.35;;;17.48;;
25163;SDS011;13440;50.860;13.662;2022-11-20T14:19:53;30.02;;;15.55;;
25163;SDS011;13440;50.860;13.662;2022-11-20T14:22:20;33.15;;;17.65;;
25163;SDS011;13440;50.860;13.662;2022-11-20T14:24:46;32.17;;;17.25;;
25163;SDS011;13440;50.860;13.662;2022-11-20T14:27:19;35.00;;;17.25;;
25163;SDS011;13440;50.860;13.662;2022-11-20T14:29:45;30.20;;;15.48;;
25163;SDS011;13440;50.860;13.662;2022-11-20T14:32:11;31.83;;;16.65;;
25163;SDS011;13440;50.860;13.662;2022-11-20T14:34:39;31.08;;;15.98;;
25163;SDS011;13440;50.860;13.662;2022-11-20T14:37:09;30.10;;;16.05;;
25163;SDS011;13440;50.860;13.662;2022-11-20T14:39:35;28.80;;;14.77;;
25163;SDS011;13440;50.860;13.662;2022-11-20T14:42:01;28.15;;;14.68;;
25163;SDS011;13440;50.860;13.662;2022-11-20T14:44:31;22.63;;;13.27;;
25163;SDS011;13440;50.860;13.662;2022-11-20T14:46:57;22.80;;;12.77;;
25163;SDS011;13440;50.860;13.662;2022-11-20T14:49:23;21.75;;;12.90;;
25163;SDS011;13440;50.860;13.662;2022-11-20T14:51:58;19.58;;;12.13;;
25163;SDS011;13440;50.860;13.662;2022-11-20T14:54:23;19.15;;;11.27;;
25163;SDS011;13440;50.860;13.662;2022-11-20T14:56:57;18.95;;;10.20;;
25163;SDS011;13440;50.860;13.662;2022-11-20T14:59:25;17.42;;;10.00;;
25163;SDS011;13440;50.860;13.662;2022-11-20T15:01:58;15.55;;;9.35;;
25163;SDS011;13440;50.860;13.662;2022-11-20T15:04:24;15.13;;;8.65;;
25163;SDS011;13440;50.860;13.662;2022-11-20T15:06:53;14.18;;;9.05;;
25163;SDS011;13440;50.860;13.662;2022-11-20T15:09:19;16.17;;;9.75;;
25163;SDS011;13440;50.860;13.662;2022-11-20T15:14:18;14.32;;;8.88;;
25163;SDS011;13440;50.860;13.662;2022-11-20T15:16:44;14.95;;;9.55;;
25163;SDS011;13440;50.860;13.662;2022-11-20T15:19:14;15.50;;;9.63;;
25163;SDS011;13440;50.860;13.662;2022-11-20T15:21:41;14.60;;;9.05;;
25163;SDS011;13440;50.860;13.662;2022-11-20T15:24:08;13.57;;;9.23;;
25163;SDS011;13440;50.860;13.662;2022-11-20T15:26:33;13.48;;;8.50;;
25163;SDS011;13440;50.860;13.662;2022-11-20T15:28:59;14.70;;;9.25;;
25163;SDS011;13440;50.860;13.662;2022-11-20T15:31:24;14.25;;;8.60;;
25163;SDS011;13440;50.860;13.662;2022-11-20T15:33:50;19.10;;;11.10;;
25163;SDS011;13440;50.860;13.662;2022-11-20T15:36:15;14.45;;;9.75;;
25163;SDS011;13440;50.860;13.662;2022-11-20T15:38:40;14.52;;;8.68;;
25163;SDS011;13440;50.860;13.662;2022-11-20T15:41:06;16.23;;;9.70;;
25163;SDS011;13440;50.860;13.662;2022-11-20T15:43:31;14.43;;;8.88;;
25163;SDS011;13440;50.860;13.662;2022-11-20T15:45:59;15.43;;;9.68;;
25163;SDS011;13440;50.860;13.662;2022-11-20T15:48:29;15.73;;;9.85;;
25163;SDS011;13440;50.860;13.662;2022-11-20T15:53:19;18.03;;;10.70;;
25163;SDS011;13440;50.860;13.662;2022-11-20T15:55:45;17.50;;;11.40;;
25163;SDS011;13440;50.860;13.662;2022-11-20T15:58:10;18.08;;;12.73;;
25163;SDS011;13440;50.860;13.662;2022-11-20T16:00:36;15.93;;;10.45;;
25163;SDS011;13440;50.860;13.662;2022-11-20T16:03:01;16.48;;;10.50;;
25163;SDS011;13440;50.860;13.662;2022-11-20T16:05:29;23.30;;;15.80;;
25163;SDS011;13440;50.860;13.662;2022-11-20T16:07:55;19.23;;;10.65;;
25163;SDS011;13440;50.860;13.662;2022-11-20T16:10:20;22.00;;;13.70;;
25163;SDS011;13440;50.860;13.662;2022-11-20T16:12:46;18.83;;;12.13;;
25163;SDS011;13440;50.860;13.662;2022-11-20T16:15:30;20.40;;;13.10;;
25163;SDS011;13440;50.860;13.662;2022-11-20T16:18:11;21.25;;;12.75;;
25163;SDS011;13440;50.860;13.662;2022-11-20T16:20:36;19.95;;;12.48;;
25163;SDS011;13440;50.860;13.662;2022-11-20T16:23:02;22.98;;;14.57;;
25163;SDS011;13440;50.860;13.662;2022-11-20T16:25:27;21.52;;;13.23;;
25163;SDS011;13440;50.860;13.662;2022-11-20T16:27:52;22.05;;;13.27;;
25163;SDS011;13440;50.860;13.662;2022-11-20T16:30:18;22.08;;;12.98;;
25163;SDS011;13440;50.860;13.662;2022-11-20T16:32:43;18.23;;;11.68;;